Time;durP1;ratioP1;P1;durP2;ratioP2;P2;SDS_P1;SDS_P2;PMS_P1;PMS_P2;Temp;Humidity;BMP_temperature;BMP_pressure;BME280_temperature;BME280_humidity;BME280_pressure;Samples;Min_cycle;Max_cycle;Signal;HPM_P1;HPM_P2
2023/06/01 00:00:17;;;;;;;2.20;2.00;;;19.20;94.30;;;;;;5055668;28;20291;-76
2023/06/01 00:02:45;;;;;;;2.10;1.90;;;19.20;94.30;;;;;;5060582;28;20796;-76
2023/06/01 00:05:12;;;;;;;1.80;1.70;;;19.20;94.40;;;;;;5058672;28;20600;-78
2023/06/01 00:07:39;;;;;;;3.37;1.90;;;19.20;94.30;;;;;;5058368;28;20316;-78
2023/06/01 00:10:07;;;;;;;3.30;1.90;;;19.10;94.30;;;;;;5058318;28;20206;-78
2023/06/01 00:12:33;;;;;;;3.60;2.20;;;19.10;94.40;;;;;;5058126;28;20282;-77
2023/06/01 00:15:00;;;;;;;2.00;1.90;;;19.00;94.50;;;;;;5058396;28;20299;-78
2023/06/01 00:17:28;;;;;;;2.10;1.90;;;19.10;94.60;;;;;;5055841;28;20295;-78
2023/06/01 00:19:57;;;;;;;1.93;1.80;;;19.10;94.60;;;;;;5061541;28;20211;-78
2023/06/01 00:22:24;;;;;;;2.40;1.50;;;19.10;94.70;;;;;;5058471;28;20741;-79
2023/06/01 00:24:51;;;;;;;2.43;1.97;;;19.10;94.90;;;;;;5062604;28;20199;-78
2023/06/01 00:27:18;;;;;;;5.70;2.30;;;19.10;95.10;;;;;;5059616;28;20238;-78
2023/06/01 00:29:45;;;;;;;2.93;1.83;;;19.00;95.10;;;;;;5055853;28;20330;-78
2023/06/01 00:32:12;;;;;;;3.13;1.80;;;19.00;95.30;;;;;;5053079;28;20204;-78
2023/06/01 00:34:38;;;;;;;2.80;1.80;;;18.90;95.40;;;;;;5063058;28;20818;-78
2023/06/01 00:37:07;;;;;;;3.37;2.07;;;18.90;95.40;;;;;;5058608;28;20239;-78
2023/06/01 00:39:34;;;;;;;3.90;2.23;;;18.90;95.40;;;;;;5060606;28;20632;-78
2023/06/01 00:42:01;;;;;;;5.33;1.90;;;18.90;95.30;;;;;;5056591;28;20607;-79
2023/06/01 00:44:28;;;;;;;2.83;2.00;;;18.80;95.40;;;;;;5060183;28;20272;-78
2023/06/01 00:46:55;;;;;;;4.33;1.93;;;18.80;95.30;;;;;;5057300;28;20230;-78
2023/06/01 00:49:23;;;;;;;2.50;2.10;;;18.70;95.30;;;;;;5054377;28;20231;-74
2023/06/01 00:51:50;;;;;;;3.33;1.90;;;18.70;95.40;;;;;;5060026;28;20279;-74
2023/06/01 00:54:19;;;;;;;5.53;1.90;;;18.60;95.90;;;;;;5054222;28;20203;-74
2023/06/01 00:56:46;;;;;;;4.30;1.97;;;18.60;95.70;;;;;;5056907;28;20207;-74
2023/06/01 00:59:15;;;;;;;3.20;2.13;;;18.50;95.90;;;;;;5055198;28;20218;-77
2023/06/01 01:01:43;;;;;;;2.57;2.37;;;18.50;96.10;;;;;;5054889;28;20207;-77
2023/06/01 01:04:13;;;;;;;2.47;2.00;;;18.50;96.30;;;;;;5054133;28;20208;-77
2023/06/01 01:06:52;;;;;;;4.97;2.13;;;18.40;96.40;;;;;;5053853;28;20233;-77
2023/06/01 01:09:28;;;;;;;5.30;2.40;;;18.40;96.50;;;;;;5055957;28;20188;-76
2023/06/01 01:12:01;;;;;;;3.10;2.20;;;18.20;96.80;;;;;;5056575;28;20197;-76
2023/06/01 01:14:34;;;;;;;4.73;2.17;;;18.00;97.10;;;;;;5054465;28;20275;-77
2023/06/01 01:17:07;;;;;;;4.00;2.40;;;18.10;97.50;;;;;;5057938;28;20200;-77
2023/06/01 01:19:53;;;;;;;2.40;2.10;;;18.10;97.30;;;;;;5053987;28;20197;-76
2023/06/01 01:22:26;;;;;;;2.20;2.07;;;17.90;97.60;;;;;;5055684;28;20199;-76
2023/06/01 01:25:21;;;;;;;2.43;2.23;;;18.00;97.60;;;;;;5057612;28;20563;-75
2023/06/01 01:28:10;;;;;;;4.90;2.53;;;17.40;98.80;;;;;;5059073;28;20238;-75
2023/06/01 01:30:42;;;;;;;6.23;2.50;;;17.30;98.80;;;;;;5054739;28;20279;-75
2023/06/01 01:33:10;;;;;;;6.13;2.50;;;17.30;99.30;;;;;;5053834;28;20212;-75
2023/06/01 01:35:38;;;;;;;4.30;2.63;;;17.40;99.10;;;;;;5053990;28;20448;-75
2023/06/01 01:38:05;;;;;;;2.80;2.50;;;17.30;99.20;;;;;;5055167;28;20292;-75
2023/06/01 01:40:32;;;;;;;3.73;2.23;;;17.00;99.90;;;;;;5052736;28;20196;-74
2023/06/01 01:43:00;;;;;;;4.03;2.17;;;16.80;99.90;;;;;;5055349;28;20325;-74
2023/06/01 01:45:27;;;;;;;3.53;2.40;;;17.00;99.90;;;;;;5053944;28;20287;-74
2023/06/01 01:48:11;;;;;;;4.37;2.60;;;16.90;99.90;;;;;;5058204;28;20327;-74
2023/06/01 01:50:46;;;;;;;3.87;2.57;;;16.80;99.90;;;;;;5055952;28;20197;-74
2023/06/01 01:53:13;;;;;;;7.20;2.63;;;16.60;99.90;;;;;;5053268;28;20670;-75
2023/06/01 01:55:40;;;;;;;3.87;2.83;;;16.50;99.90;;;;;;5056344;28;20204;-75
2023/06/01 01:58:07;;;;;;;5.00;2.80;;;16.50;99.90;;;;;;5058816;28;20267;-75
2023/06/01 02:00:34;;;;;;;4.80;2.50;;;16.40;99.90;;;;;;5055560;28;20218;-75
2023/06/01 02:03:03;;;;;;;5.10;3.00;;;16.30;99.90;;;;;;5052184;28;20614;-75
2023/06/01 02:05:30;;;;;;;2.83;2.57;;;16.30;99.90;;;;;;5055004;28;20200;-75
2023/06/01 02:07:56;;;;;;;3.43;3.10;;;16.30;99.90;;;;;;5056400;28;20314;-74
2023/06/01 02:10:24;;;;;;;6.90;3.03;;;16.20;99.90;;;;;;5053973;28;20210;-74
2023/06/01 02:12:51;;;;;;;5.20;3.10;;;16.20;99.90;;;;;;5053511;28;20556;-75
2023/06/01 02:15:17;;;;;;;5.53;3.17;;;16.20;99.90;;;;;;5054789;28;20204;-72
2023/06/01 02:17:44;;;;;;;3.67;2.90;;;15.90;99.90;;;;;;5053208;28;20327;-76
2023/06/01 02:20:14;;;;;;;4.47;3.20;;;15.60;99.90;;;;;;5045083;28;20865;-78
2023/06/01 02:22:41;;;;;;;4.63;3.20;;;15.60;99.90;;;;;;5045174;28;20226;-79
2023/06/01 02:25:08;;;;;;;4.40;3.30;;;15.30;99.90;;;;;;5048330;28;20239;-78
2023/06/01 02:27:35;;;;;;;4.67;3.20;;;15.40;99.90;;;;;;5048391;28;20239;-71
2023/06/01 02:30:02;;;;;;;3.67;3.27;;;15.50;99.90;;;;;;5054135;28;20242;-71
2023/06/01 02:32:30;;;;;;;5.47;3.37;;;15.50;99.90;;;;;;5047052;28;20580;-70
2023/06/01 02:34:57;;;;;;;5.73;3.70;;;15.40;99.90;;;;;;5051148;28;20236;-70
2023/06/01 02:37:25;;;;;;;3.80;3.40;;;15.20;99.90;;;;;;5064388;28;20318;-70
2023/06/01 02:39:52;;;;;;;5.33;4.00;;;15.10;99.90;;;;;;5065588;28;20597;-70
2023/06/01 02:42:19;;;;;;;7.00;3.80;;;15.10;99.90;;;;;;5066430;28;20244;-70
2023/06/01 02:44:46;;;;;;;6.87;3.60;;;15.10;99.90;;;;;;5074037;28;20203;-70
2023/06/01 02:47:13;;;;;;;6.20;3.90;;;15.10;99.90;;;;;;5066695;28;20234;-70
2023/06/01 02:49:40;;;;;;;4.77;3.63;;;15.00;99.90;;;;;;5049058;28;20200;-70
2023/06/01 02:52:07;;;;;;;6.20;3.93;;;15.00;99.90;;;;;;5046668;28;20486;-70
2023/06/01 02:54:35;;;;;;;5.83;4.13;;;15.20;99.90;;;;;;5046250;28;20239;-70
2023/06/01 02:57:02;;;;;;;4.73;4.03;;;15.10;99.90;;;;;;5046023;28;20227;-70
2023/06/01 02:59:29;;;;;;;6.30;3.80;;;14.90;99.90;;;;;;5046055;28;20203;-78
2023/06/01 03:01:56;;;;;;;10.27;4.53;;;14.80;99.90;;;;;;5058726;28;20318;-74
2023/06/01 03:04:23;;;;;;;7.47;4.43;;;14.60;99.90;;;;;;5057955;28;20200;-75
2023/06/01 03:06:50;;;;;;;4.77;4.10;;;14.50;99.90;;;;;;5057802;28;20281;-75
2023/06/01 03:09:17;;;;;;;6.57;4.43;;;14.80;99.90;;;;;;5062088;28;20203;-75
2023/06/01 03:11:45;;;;;;;6.50;4.70;;;14.90;99.90;;;;;;5057368;28;20239;-74
2023/06/01 03:14:12;;;;;;;6.60;4.97;;;14.70;99.90;;;;;;5080086;28;20209;-74
2023/06/01 03:16:39;;;;;;;7.23;4.90;;;14.60;99.90;;;;;;5087687;28;20241;-74
2023/06/01 03:19:06;;;;;;;9.07;5.23;;;14.60;99.90;;;;;;5087471;28;20548;-74
2023/06/01 03:21:33;;;;;;;5.67;4.90;;;14.30;99.90;;;;;;5087843;28;20241;-74
2023/06/01 03:24:00;;;;;;;6.13;5.53;;;14.30;99.90;;;;;;5082977;28;20309;-74
2023/06/01 03:26:28;;;;;;;8.87;5.47;;;14.20;99.90;;;;;;5067275;28;20318;-74
2023/06/01 03:28:56;;;;;;;7.30;5.40;;;14.40;99.90;;;;;;5067699;28;20234;-74
2023/06/01 03:31:23;;;;;;;8.33;5.30;;;14.30;99.90;;;;;;5067107;28;20286;-74
2023/06/01 03:33:50;;;;;;;7.17;5.17;;;14.40;99.90;;;;;;5067530;28;20218;-74
2023/06/01 03:36:17;;;;;;;8.27;5.47;;;14.30;99.90;;;;;;5067285;28;20207;-75
2023/06/01 03:38:44;;;;;;;7.53;5.20;;;14.20;99.90;;;;;;5067498;28;20612;-74
2023/06/01 03:41:10;;;;;;;7.93;5.27;;;14.50;99.90;;;;;;5067565;28;20207;-74
2023/06/01 03:43:37;;;;;;;8.77;4.47;;;14.60;99.90;;;;;;5067452;28;20202;-74
2023/06/01 03:46:06;;;;;;;8.57;4.73;;;14.40;99.90;;;;;;5067537;28;20214;-74
2023/06/01 03:48:32;;;;;;;4.97;4.57;;;14.30;99.90;;;;;;5067321;28;20302;-74
2023/06/01 03:50:59;;;;;;;9.20;5.27;;;14.00;99.90;;;;;;5067472;28;20208;-74
2023/06/01 03:53:26;;;;;;;7.73;5.57;;;13.90;99.90;;;;;;5067601;28;20211;-74
2023/06/01 03:55:54;;;;;;;10.27;5.60;;;14.00;99.90;;;;;;5067326;28;20216;-74
2023/06/01 03:58:21;;;;;;;9.80;5.40;;;13.80;99.90;;;;;;5066829;28;20360;-74
2023/06/01 04:00:49;;;;;;;6.50;5.47;;;13.90;99.90;;;;;;5066493;28;20671;-74
2023/06/01 04:03:21;;;;;;;8.53;5.50;;;13.70;99.90;;;;;;5066745;28;20216;-74
2023/06/01 04:05:49;;;;;;;10.87;5.57;;;14.00;99.90;;;;;;5066884;28;20543;-74
2023/06/01 04:08:17;;;;;;;9.40;5.90;;;13.90;99.90;;;;;;5066850;28;20619;-74
2023/06/01 04:10:44;;;;;;;7.70;5.67;;;13.90;99.90;;;;;;5066980;28;20204;-74
2023/06/01 04:13:11;;;;;;;8.50;6.50;;;13.80;99.90;;;;;;5071314;28;20242;-74
2023/06/01 04:15:38;;;;;;;12.83;7.60;;;13.70;99.90;;;;;;5086314;28;20257;-74
2023/06/01 04:18:04;;;;;;;13.10;7.37;;;13.50;99.90;;;;;;5086893;28;20265;-74
2023/06/01 04:20:34;;;;;;;9.30;8.07;;;13.70;99.90;;;;;;5083418;28;20543;-74
2023/06/01 04:23:02;;;;;;;14.40;7.67;;;13.50;99.90;;;;;;5066785;28;20215;-74
2023/06/01 04:25:30;;;;;;;12.17;7.67;;;13.40;99.90;;;;;;5066420;28;20298;-74
2023/06/01 04:27:57;;;;;;;14.33;8.20;;;13.40;99.90;;;;;;5066550;28;20273;-74
2023/06/01 04:30:24;;;;;;;13.07;8.63;;;13.30;99.90;;;;;;5066617;28;20269;-74
2023/06/01 04:32:51;;;;;;;16.60;9.00;;;13.30;99.90;;;;;;5066579;28;20231;-75
2023/06/01 04:35:18;;;;;;;13.70;8.33;;;13.00;99.90;;;;;;5066725;28;20207;-74
2023/06/01 04:37:46;;;;;;;12.97;8.27;;;12.90;99.90;;;;;;5066052;28;20325;-74
2023/06/01 04:40:14;;;;;;;15.47;8.07;;;12.90;99.90;;;;;;5066294;28;20299;-74
2023/06/01 04:42:42;;;;;;;10.73;7.77;;;13.10;99.90;;;;;;5065719;28;20239;-74
2023/06/01 04:45:10;;;;;;;11.77;7.50;;;13.40;99.90;;;;;;5065791;28;20298;-74
2023/06/01 04:47:39;;;;;;;8.90;6.97;;;13.80;99.90;;;;;;5064727;28;20218;-74
2023/06/01 04:50:08;;;;;;;8.80;6.23;;;14.10;99.90;;;;;;5065613;28;20693;-74
2023/06/01 04:52:35;;;;;;;10.07;7.17;;;14.30;99.90;;;;;;5065421;28;20294;-74
2023/06/01 04:55:04;;;;;;;9.40;6.37;;;14.20;99.90;;;;;;5065989;28;20836;-74
2023/06/01 04:57:32;;;;;;;9.07;6.40;;;14.00;99.90;;;;;;5066087;28;20353;-74
2023/06/01 04:59:59;;;;;;;9.97;7.30;;;13.40;99.90;;;;;;5066036;28;20387;-74
2023/06/01 05:02:26;;;;;;;10.73;7.23;;;13.20;99.90;;;;;;5065951;28;20745;-74
2023/06/01 05:04:53;;;;;;;10.50;6.73;;;13.00;99.90;;;;;;5065757;28;21162;-73
2023/06/01 05:07:21;;;;;;;7.93;6.83;;;13.20;99.90;;;;;;5066246;28;20298;-73
2023/06/01 05:09:48;;;;;;;9.20;6.53;;;13.20;99.90;;;;;;5063618;28;20214;-74
2023/06/01 05:12:16;;;;;;;10.00;6.10;;;13.40;99.90;;;;;;5065931;28;20207;-74
2023/06/01 05:14:43;;;;;;;8.43;6.27;;;13.40;99.90;;;;;;5082516;28;20641;-73
2023/06/01 05:17:10;;;;;;;9.50;6.67;;;13.20;99.90;;;;;;5078974;28;20219;-74
2023/06/01 05:19:37;;;;;;;10.00;7.07;;;12.90;99.90;;;;;;5065418;28;20296;-74
2023/06/01 05:22:04;;;;;;;11.03;6.80;;;12.90;99.90;;;;;;5065896;28;20247;-74
2023/06/01 05:24:31;;;;;;;8.37;6.37;;;12.70;99.90;;;;;;5065667;28;20302;-74
2023/06/01 05:26:57;;;;;;;8.80;6.30;;;12.60;99.90;;;;;;5065333;28;20255;-74
2023/06/01 05:29:26;;;;;;;11.43;6.53;;;12.80;99.90;;;;;;5065594;28;20208;-74
2023/06/01 05:31:52;;;;;;;11.77;6.77;;;12.70;99.90;;;;;;5065208;28;20200;-74
2023/06/01 05:34:20;;;;;;;9.30;6.13;;;12.60;99.90;;;;;;5065820;28;20298;-74
2023/06/01 05:36:48;;;;;;;12.50;6.63;;;12.70;99.90;;;;;;5065271;28;20203;-74
2023/06/01 05:39:15;;;;;;;8.17;5.43;;;12.80;99.90;;;;;;5065034;28;20325;-75
2023/06/01 05:41:42;;;;;;;10.37;6.10;;;12.90;99.90;;;;;;5065018;28;20240;-74
2023/06/01 05:44:09;;;;;;;8.53;5.50;;;13.00;99.90;;;;;;5065226;28;20706;-74
2023/06/01 05:46:38;;;;;;;8.97;5.07;;;13.10;99.90;;;;;;5065012;28;20302;-75
2023/06/01 05:49:05;;;;;;;9.60;5.93;;;12.90;99.90;;;;;;5064989;28;20211;-74
2023/06/01 05:51:36;;;;;;;9.23;6.07;;;12.90;99.90;;;;;;5064998;28;20207;-74
2023/06/01 05:54:03;;;;;;;10.10;6.00;;;13.00;99.90;;;;;;5065007;28;20195;-74
2023/06/01 05:56:30;;;;;;;8.33;5.30;;;13.10;99.90;;;;;;5064694;28;20213;-74
2023/06/01 05:58:57;;;;;;;7.10;5.27;;;13.00;99.90;;;;;;5066975;28;20231;-74
2023/06/01 06:01:24;;;;;;;7.53;5.40;;;13.00;99.90;;;;;;5068979;28;20203;-74
2023/06/01 06:03:52;;;;;;;7.77;5.33;;;13.10;99.90;;;;;;5068724;28;20217;-74
2023/06/01 06:06:20;;;;;;;8.03;5.33;;;13.10;99.90;;;;;;5069098;28;20309;-74
2023/06/01 06:08:47;;;;;;;6.87;5.30;;;13.20;99.90;;;;;;5069059;28;20422;-75
2023/06/01 06:11:14;;;;;;;9.33;5.60;;;13.40;99.90;;;;;;5069224;28;20322;-74
2023/06/01 06:13:41;;;;;;;10.57;5.33;;;13.70;99.90;;;;;;5071358;28;20725;-74
2023/06/01 06:16:07;;;;;;;5.93;5.00;;;14.00;99.90;;;;;;5068869;28;20680;-74
2023/06/01 06:18:34;;;;;;;6.77;5.10;;;14.10;99.90;;;;;;5068353;28;20724;-74
2023/06/01 06:21:03;;;;;;;11.30;5.33;;;14.20;99.90;;;;;;5069177;28;20883;-74
2023/06/01 06:23:32;;;;;;;7.10;5.13;;;14.20;99.90;;;;;;5060084;28;20222;-74
2023/06/01 06:25:59;;;;;;;12.83;5.77;;;14.20;99.90;;;;;;5048869;28;20346;-74
2023/06/01 06:28:26;;;;;;;11.73;6.77;;;14.40;99.90;;;;;;5048454;28;20774;-74
2023/06/01 06:30:53;;;;;;;5.47;4.57;;;14.60;99.90;;;;;;5048405;28;20833;-74
2023/06/01 06:33:20;;;;;;;7.60;5.50;;;14.60;99.90;;;;;;5048296;28;20287;-74
2023/06/01 06:35:47;;;;;;;7.23;5.00;;;14.60;99.90;;;;;;5054526;28;20207;-74
2023/06/01 06:38:16;;;;;;;8.17;5.07;;;14.50;99.90;;;;;;5068588;28;20772;-74
2023/06/01 06:40:43;;;;;;;5.33;4.70;;;14.20;99.90;;;;;;5068420;28;20226;-74
2023/06/01 06:43:10;;;;;;;7.03;4.83;;;14.00;99.90;;;;;;5072478;28;20663;-74
2023/06/01 06:45:37;;;;;;;9.20;4.93;;;13.90;99.90;;;;;;5088318;28;20297;-74
2023/06/01 06:48:04;;;;;;;5.77;4.97;;;13.90;99.90;;;;;;5088757;28;20297;-75
2023/06/01 06:50:31;;;;;;;7.50;4.70;;;13.80;99.90;;;;;;5088274;28;20242;-74
2023/06/01 06:52:59;;;;;;;8.10;5.17;;;13.50;99.90;;;;;;5088901;28;20673;-74
2023/06/01 06:55:27;;;;;;;8.77;5.27;;;13.50;99.90;;;;;;5088875;28;20608;-74
2023/06/01 06:57:54;;;;;;;4.80;4.40;;;13.50;99.90;;;;;;5081143;28;20258;-74
2023/06/01 07:00:22;;;;;;;5.83;4.60;;;13.30;99.90;;;;;;5067856;28;20294;-74
2023/06/01 07:02:49;;;;;;;7.13;5.30;;;13.30;99.90;;;;;;5068242;28;20575;-74
2023/06/01 07:05:16;;;;;;;8.60;5.10;;;13.20;99.90;;;;;;5067737;28;20218;-74
2023/06/01 07:07:43;;;;;;;8.27;4.83;;;13.10;99.90;;;;;;5067878;28;20210;-74
2023/06/01 07:10:10;;;;;;;6.07;4.50;;;13.30;99.90;;;;;;5066940;28;20265;-74
2023/06/01 07:12:39;;;;;;;5.50;4.20;;;13.50;99.90;;;;;;5067565;28;20199;-74
2023/06/01 07:15:07;;;;;;;9.67;4.80;;;13.90;99.90;;;;;;5047549;28;20219;-74
2023/06/01 07:17:35;;;;;;;9.27;4.97;;;14.20;99.90;;;;;;5047724;28;20642;-74
2023/06/01 07:20:06;;;;;;;7.93;4.97;;;14.40;99.90;;;;;;5047843;28;20208;-74
2023/06/01 07:22:33;;;;;;;7.97;4.80;;;14.40;99.90;;;;;;5047566;28;20557;-74
2023/06/01 07:25:00;;;;;;;10.13;4.83;;;14.10;99.90;;;;;;5047480;28;20298;-74
2023/06/01 07:27:28;;;;;;;9.80;4.73;;;14.00;99.90;;;;;;5051796;28;20220;-74
2023/06/01 07:29:56;;;;;;;8.17;5.50;;;13.70;99.90;;;;;;5067898;28;20300;-74
2023/06/01 07:32:23;;;;;;;5.53;4.70;;;13.70;99.90;;;;;;5067772;28;20648;-74
2023/06/01 07:34:50;;;;;;;9.03;5.10;;;14.00;99.90;;;;;;5067268;28;20736;-74
2023/06/01 07:37:21;;;;;;;7.27;4.30;;;14.50;99.90;;;;;;5067622;28;20210;-74
2023/06/01 07:39:48;;;;;;;7.57;4.30;;;14.80;99.90;;;;;;5067654;28;20832;-74
2023/06/01 07:42:15;;;;;;;8.40;5.57;;;15.20;99.90;;;;;;5067507;28;20318;-74
2023/06/01 07:44:42;;;;;;;6.77;4.43;;;15.40;99.90;;;;;;5067900;28;20776;-74
2023/06/01 07:47:11;;;;;;;6.97;4.13;;;15.50;99.90;;;;;;5067272;28;20349;-75
2023/06/01 07:49:38;;;;;;;9.00;4.60;;;15.70;99.90;;;;;;5067195;28;20238;-75
2023/06/01 07:52:06;;;;;;;8.70;4.70;;;15.40;99.90;;;;;;5067174;28;20578;-75
2023/06/01 07:54:34;;;;;;;6.83;4.80;;;15.00;99.90;;;;;;5066910;28;20218;-75
2023/06/01 07:57:02;;;;;;;6.00;4.20;;;14.70;99.90;;;;;;5066597;28;20253;-74
2023/06/01 07:59:29;;;;;;;8.30;4.47;;;14.70;99.90;;;;;;5066770;28;20251;-74
2023/06/01 08:01:57;;;;;;;5.87;4.10;;;14.80;99.90;;;;;;5067288;28;20302;-74
2023/06/01 08:04:26;;;;;;;5.90;4.57;;;14.50;99.90;;;;;;5068486;28;20215;-73
2023/06/01 08:06:53;;;;;;;5.87;4.57;;;14.50;99.90;;;;;;5072253;28;20261;-73
2023/06/01 08:09:21;;;;;;;5.23;4.70;;;14.70;99.90;;;;;;5066934;28;20203;-74
2023/06/01 08:11:49;;;;;;;7.63;4.20;;;14.80;99.90;;;;;;5066899;28;20211;-74
2023/06/01 08:14:15;;;;;;;30.43;5.53;;;14.90;99.90;;;;;;5066485;28;20768;-74
2023/06/01 08:16:42;;;;;;;8.53;4.47;;;15.20;99.90;;;;;;5066770;28;20299;-74
2023/06/01 08:19:09;;;;;;;7.80;4.40;;;15.40;99.90;;;;;;5066524;28;20251;-74
2023/06/01 08:21:41;;;;;;;9.83;4.83;;;15.50;99.90;;;;;;5065546;28;20706;-74
2023/06/01 08:24:08;;;;;;;7.77;4.70;;;15.40;99.90;;;;;;5053100;28;20193;-74
2023/06/01 08:26:35;;;;;;;7.10;4.90;;;15.00;99.90;;;;;;5046366;28;20228;-74
2023/06/01 08:29:03;;;;;;;11.40;4.70;;;14.80;99.90;;;;;;5063163;28;20200;-74
2023/06/01 08:31:30;;;;;;;8.20;4.83;;;14.70;99.90;;;;;;5066003;28;20302;-75
2023/06/01 08:33:57;;;;;;;12.23;4.87;;;14.90;99.90;;;;;;5066003;28;20310;-75
2023/06/01 08:36:24;;;;;;;12.80;5.03;;;15.10;99.90;;;;;;5066025;28;20721;-75
2023/06/01 08:38:56;;;;;;;8.53;4.90;;;15.00;99.90;;;;;;5065976;28;20343;-76
2023/06/01 08:41:31;;;;;;;6.07;5.00;;;15.00;99.90;;;;;;5065573;28;20246;-74
2023/06/01 08:44:03;;;;;;;7.83;5.23;;;15.30;99.90;;;;;;5077027;28;20237;-74
2023/06/01 08:46:32;;;;;;;10.13;6.13;;;15.20;99.90;;;;;;5085576;28;20199;-74
2023/06/01 08:49:00;;;;;;;6.97;5.43;;;15.40;99.90;;;;;;5085989;28;20206;-74
2023/06/01 08:51:27;;;;;;;8.83;5.77;;;15.50;99.90;;;;;;5086000;28;20260;-74
2023/06/01 08:53:58;;;;;;;9.90;6.23;;;15.70;99.90;;;;;;5085924;28;20831;-74
2023/06/01 08:56:28;;;;;;;8.07;6.10;;;15.80;99.90;;;;;;5086052;28;20195;-74
2023/06/01 08:58:57;;;;;;;6.60;5.90;;;15.90;99.90;;;;;;5085952;28;20246;-74
2023/06/01 09:01:25;;;;;;;6.73;5.60;;;16.00;99.90;;;;;;5085496;28;20238;-74
2023/06/01 09:03:52;;;;;;;12.87;6.40;;;16.20;99.90;;;;;;5065997;28;20249;-74
2023/06/01 09:06:20;;;;;;;11.40;6.37;;;16.30;99.90;;;;;;5066046;28;20390;-74
2023/06/01 09:08:47;;;;;;;13.70;6.33;;;16.50;99.90;;;;;;5065736;28;20222;-74
2023/06/01 09:11:15;;;;;;;10.13;5.80;;;16.60;99.90;;;;;;5065883;28;20213;-74
2023/06/01 09:13:42;;;;;;;8.57;6.37;;;16.80;99.90;;;;;;5065134;28;20307;-74
2023/06/01 09:16:10;;;;;;;11.57;6.20;;;16.70;99.90;;;;;;5065591;28;20216;-74
2023/06/01 09:18:37;;;;;;;8.10;6.70;;;16.80;99.90;;;;;;5065382;28;20230;-75
2023/06/01 09:21:15;;;;;;;17.97;6.90;;;17.00;99.90;;;;;;5065610;28;20226;-75
2023/06/01 09:23:42;;;;;;;10.83;7.87;;;17.20;99.90;;;;;;5065345;28;20288;-74
2023/06/01 09:26:10;;;;;;;9.13;6.90;;;17.30;99.90;;;;;;5065590;28;20235;-74
2023/06/01 09:28:58;;;;;;;9.70;6.80;;;17.30;99.90;;;;;;5065138;28;20806;-75
2023/06/01 09:31:36;;;;;;;8.77;7.97;;;17.50;99.90;;;;;;5065301;28;20215;-74
2023/06/01 09:34:04;;;;;;;8.67;7.77;;;17.40;99.90;;;;;;5065075;28;20640;-75
2023/06/01 09:36:33;;;;;;;10.33;8.10;;;17.20;99.90;;;;;;5065079;28;20771;-74
2023/06/01 09:39:05;;;;;;;11.13;8.07;;;17.30;99.90;;;;;;5065026;28;20697;-74
2023/06/01 09:41:53;;;;;;;9.17;7.77;;;17.50;99.90;;;;;;5064981;28;20831;-74
2023/06/01 09:44:30;;;;;;;11.70;8.17;;;17.70;99.90;;;;;;5079589;28;20329;-75
2023/06/01 09:46:58;;;;;;;10.00;7.47;;;17.70;99.90;;;;;;5085568;28;20202;-75
2023/06/01 09:49:27;;;;;;;10.63;8.43;;;17.90;99.90;;;;;;5085355;28;20203;-74
2023/06/01 09:52:08;;;;;;;11.27;8.50;;;17.90;99.90;;;;;;5085516;28;20306;-74
2023/06/01 09:54:37;;;;;;;11.33;9.37;;;17.80;99.90;;;;;;5084936;28;20194;-73
2023/06/01 09:57:06;;;;;;;10.60;8.30;;;17.90;99.90;;;;;;5085047;28;20764;-74
2023/06/01 09:59:41;;;;;;;23.40;10.17;;;17.90;99.90;;;;;;5071105;28;20233;-74
2023/06/01 10:02:12;;;;;;;10.90;8.77;;;18.00;99.90;;;;;;5065398;28;20207;-74
2023/06/01 10:04:42;;;;;;;10.13;8.90;;;18.20;99.90;;;;;;5064867;28;20202;-75
2023/06/01 10:07:10;;;;;;;9.90;8.90;;;18.30;99.90;;;;;;5065134;28;20214;-74
2023/06/01 10:09:40;;;;;;;10.80;8.97;;;18.30;99.90;;;;;;5065600;28;20221;-75
2023/06/01 10:12:08;;;;;;;11.03;9.33;;;18.50;99.90;;;;;;5065364;28;20261;-75
2023/06/01 10:14:38;;;;;;;9.70;8.70;;;18.60;99.90;;;;;;5064983;28;20204;-74
2023/06/01 10:17:07;;;;;;;10.77;9.43;;;18.60;99.90;;;;;;5065584;28;20234;-74
2023/06/01 10:19:36;;;;;;;9.83;8.83;;;18.80;99.90;;;;;;5064816;28;21114;-74
2023/06/01 10:22:04;;;;;;;12.20;9.07;;;19.00;99.90;;;;;;5065605;28;20219;-74
2023/06/01 10:24:32;;;;;;;11.57;9.60;;;18.90;99.90;;;;;;5047933;28;20749;-75
2023/06/01 10:27:06;;;;;;;9.60;8.60;;;18.60;99.90;;;;;;5044866;28;20639;-75
2023/06/01 10:29:34;;;;;;;9.03;8.13;;;18.80;99.90;;;;;;5058734;28;20246;-74
2023/06/01 10:32:02;;;;;;;9.57;8.70;;;18.90;99.90;;;;;;5081058;28;20239;-74
2023/06/01 10:34:40;;;;;;;10.40;8.60;;;18.80;99.90;;;;;;5065226;28;20262;-74
2023/06/01 10:37:17;;;;;;;10.87;7.60;;;19.00;99.90;;;;;;5064659;28;20211;-74
2023/06/01 10:39:45;;;;;;;17.67;8.57;;;19.20;99.90;;;;;;5064747;28;20227;-74
2023/06/01 10:42:38;;;;;;;11.57;8.40;;;19.50;99.90;;;;;;5064637;28;20258;-74
2023/06/01 10:45:07;;;;;;;9.83;8.13;;;19.70;99.90;;;;;;5065472;28;20198;-75
2023/06/01 10:47:49;;;;;;;9.90;8.33;;;19.50;99.90;;;;;;5068484;28;20229;-74
2023/06/01 10:50:19;;;;;;;9.77;7.73;;;19.70;99.90;;;;;;5068647;28;20210;-75
2023/06/01 10:52:47;;;;;;;8.33;7.53;;;19.80;99.90;;;;;;5068402;28;20207;-74
2023/06/01 10:55:22;;;;;;;9.67;7.63;;;19.60;99.90;;;;;;5067973;28;20214;-74
2023/06/01 10:57:50;;;;;;;9.47;8.17;;;19.50;99.90;;;;;;5068189;28;20264;-74
2023/06/01 11:00:19;;;;;;;9.70;8.40;;;19.70;99.90;;;;;;5081506;28;20238;-74
2023/06/01 11:02:59;;;;;;;10.30;7.87;;;19.80;99.90;;;;;;5088504;28;20198;-74
2023/06/01 11:05:43;;;;;;;8.10;7.27;;;19.80;99.90;;;;;;5088693;28;20562;-74
2023/06/01 11:08:50;;;;;;;8.60;6.90;;;20.20;99.90;;;;;;5088722;28;20201;-74
2023/06/01 11:11:17;;;;;;;7.77;6.73;;;20.40;99.80;;;;;;5067490;28;20214;-74
2023/06/01 11:13:45;;;;;;;9.38;6.95;;;20.50;99.90;;;;;;5067858;28;20227;-74
2023/06/01 11:16:31;;;;;;;9.27;6.93;;;20.80;99.60;;;;;;5067836;28;20206;-74
2023/06/01 11:19:04;;;;;;;6.77;6.17;;;20.90;99.50;;;;;;5067737;28;20249;-74
2023/06/01 11:21:35;;;;;;;8.93;7.28;;;21.00;99.70;;;;;;5067766;28;20285;-75
2023/06/01 11:24:05;;;;;;;9.85;7.07;;;21.40;99.50;;;;;;5067651;28;20203;-74
2023/06/01 11:26:33;;;;;;;7.95;6.53;;;21.30;98.90;;;;;;5067359;28;20654;-74
2023/06/01 11:29:06;;;;;;;7.35;6.47;;;21.10;98.80;;;;;;5070035;28;20800;-74
2023/06/01 11:31:37;;;;;;;8.95;6.95;;;21.10;99.30;;;;;;5087341;28;20210;-74
2023/06/01 11:34:07;;;;;;;6.35;5.72;;;21.10;98.60;;;;;;5087161;28;20679;-74
2023/06/01 11:36:42;;;;;;;6.70;5.90;;;21.30;99.20;;;;;;5087527;28;20557;-74
2023/06/01 11:39:24;;;;;;;6.25;5.40;;;21.50;98.30;;;;;;5087210;28;20195;-74
2023/06/01 11:41:53;;;;;;;5.32;4.88;;;21.40;97.30;;;;;;5087252;28;20292;-74
2023/06/01 11:44:20;;;;;;;7.60;4.47;;;21.40;96.80;;;;;;5087490;28;20696;-74
2023/06/01 11:46:58;;;;;;;6.73;5.03;;;20.90;97.00;;;;;;5087332;28;20211;-74
2023/06/01 11:49:27;;;;;;;5.60;4.53;;;21.00;97.30;;;;;;5087520;28;20211;-74
2023/06/01 11:51:57;;;;;;;6.88;5.50;;;21.30;97.30;;;;;;5073044;28;20767;-74
2023/06/01 11:54:28;;;;;;;13.87;5.10;;;21.20;97.10;;;;;;5067124;28;20588;-74
2023/06/01 11:56:56;;;;;;;8.20;5.32;;;21.70;97.20;;;;;;5067177;28;20203;-74
2023/06/01 11:59:23;;;;;;;8.00;4.95;;;22.10;97.10;;;;;;5073231;28;20284;-74
2023/06/01 12:01:53;;;;;;;6.65;5.13;;;22.30;96.40;;;;;;5087613;28;20207;-74
2023/06/01 12:04:23;;;;;;;7.35;4.80;;;22.60;96.10;;;;;;5087113;28;20216;-74
2023/06/01 12:06:52;;;;;;;6.97;4.65;;;22.50;95.90;;;;;;5068438;28;20199;-74
2023/06/01 12:09:20;;;;;;;5.93;4.75;;;22.70;95.60;;;;;;5066724;28;20573;-74
2023/06/01 12:11:47;;;;;;;5.55;4.88;;;22.90;95.70;;;;;;5066745;28;20200;-74
2023/06/01 12:14:16;;;;;;;6.72;4.75;;;23.00;96.10;;;;;;5066419;28;20700;-74
2023/06/01 12:17:00;;;;;;;5.53;4.85;;;23.20;95.30;;;;;;5066495;28;20269;-74
2023/06/01 12:19:28;;;;;;;9.50;4.38;;;23.50;95.20;;;;;;5066526;28;20198;-74
2023/06/01 12:21:58;;;;;;;5.55;4.30;;;23.60;95.00;;;;;;5066749;28;20625;-74
2023/06/01 12:24:30;;;;;;;8.13;4.80;;;23.50;94.80;;;;;;5063703;28;20304;-74
2023/06/01 12:26:58;;;;;;;7.75;4.50;;;23.00;94.40;;;;;;5047065;28;20265;-74
2023/06/01 12:29:38;;;;;;;6.43;4.40;;;23.30;94.60;;;;;;5058858;28;20733;-74
2023/06/01 12:32:06;;;;;;;5.97;4.60;;;23.20;94.60;;;;;;5086982;28;20203;-74
2023/06/01 12:34:34;;;;;;;5.95;3.72;;;22.90;94.30;;;;;;5086543;28;20203;-74
2023/06/01 12:37:14;;;;;;;9.32;4.50;;;23.30;94.80;;;;;;5086843;28;20198;-74
2023/06/01 12:39:41;;;;;;;7.22;3.60;;;23.60;94.20;;;;;;5086538;28;20655;-74
2023/06/01 12:42:10;;;;;;;4.10;3.70;;;23.70;94.50;;;;;;5086436;28;20628;-74
2023/06/01 12:44:37;;;;;;;5.85;4.38;;;23.80;93.40;;;;;;5086050;28;20574;-74
2023/06/01 12:47:04;;;;;;;4.40;4.00;;;24.00;93.80;;;;;;5080756;28;20665;-74
2023/06/01 12:49:31;;;;;;;5.60;4.45;;;24.50;93.70;;;;;;5066166;28;20210;-74
2023/06/01 12:51:59;;;;;;;6.50;3.85;;;24.60;92.90;;;;;;5066064;28;21166;-74
2023/06/01 12:54:28;;;;;;;4.82;3.00;;;23.90;92.70;;;;;;5066118;28;20634;-74